Time;durP1;ratioP1;P1;durP2;ratioP2;P2;SDS_P1;SDS_P2;PMS_P1;PMS_P2;Temp;Humidity;BMP_temperature;BMP_pressure;BME280_temperature;BME280_humidity;BME280_pressure;Samples;Min_cycle;Max_cycle;Signal;HPM_P1;HPM_P2
2022/01/05 00:00:19;;;;;;;1999.90;999.90;;;;;;;7.81;100.00;164480.38;5047247;28;20049;-67
2022/01/05 00:02:46;;;;;;;1999.90;999.90;;;;;;;8.01;100.00;164532.59;5048462;28;20137;-67
2022/01/05 00:05:13;;;;;;;1999.90;999.90;;;;;;;8.07;100.00;164550.50;5049482;28;20444;-68
2022/01/05 00:07:39;;;;;;;1999.90;999.90;;;;;;;7.88;100.00;164499.63;5047336;28;20103;-67
2022/01/05 00:10:06;;;;;;;1999.90;999.90;;;;;;;8.07;100.00;164550.50;5047552;28;20053;-67
2022/01/05 00:12:32;;;;;;;1999.90;999.90;;;;;;;8.08;100.00;164551.88;5048844;28;20122;-67
2022/01/05 00:14:59;;;;;;;1999.90;999.90;;;;;;;8.25;100.00;164597.28;5047554;28;20473;-67
2022/01/05 00:17:26;;;;;;;1999.90;999.90;;;;;;;8.34;100.00;164622.00;5048177;28;20098;-67
2022/01/05 00:19:52;;;;;;;1999.90;999.90;;;;;;;8.40;100.00;164637.16;5049642;28;20061;-67
2022/01/05 00:22:19;;;;;;;1999.90;999.90;;;;;;;8.14;100.00;164567.00;5047174;28;20495;-67
2022/01/05 00:24:46;;;;;;;1999.90;999.90;;;;;;;8.59;100.00;164688.06;5047998;28;20072;-67
2022/01/05 00:27:12;;;;;;;1999.90;999.90;;;;;;;8.85;99.12;164758.22;5049047;28;20438;-67
2022/01/05 00:29:39;;;;;;;1999.90;999.90;;;;;;;9.02;98.28;164803.66;5047304;28;20144;-67
2022/01/05 00:32:06;;;;;;;1999.90;999.90;;;;;;;9.03;98.50;164805.00;5047892;28;20048;-68
2022/01/05 00:34:33;;;;;;;1999.90;999.90;;;;;;;9.21;97.74;164853.16;5049132;28;20103;-68
2022/01/05 00:37:00;;;;;;;1999.90;999.90;;;;;;;9.21;96.99;164853.16;5047139;28;20045;-68
2022/01/05 00:39:26;;;;;;;1999.90;999.90;;;;;;;9.10;97.45;164824.28;5047269;28;20091;-68
2022/01/05 00:41:53;;;;;;;1999.90;999.90;;;;;;;9.18;97.24;164846.28;5047806;28;20068;-67
2022/01/05 00:44:19;;;;;;;1999.90;999.90;;;;;;;9.33;96.78;164886.19;5048420;28;20520;-67
2022/01/05 00:46:46;;;;;;;1999.90;999.90;;;;;;;9.37;96.16;164897.19;5047310;28;20041;-68
2022/01/05 00:49:13;;;;;;;1999.90;999.90;;;;;;;9.47;95.75;164923.38;5048564;28;20053;-67
2022/01/05 00:51:40;;;;;;;1999.90;999.90;;;;;;;9.48;95.80;164926.06;5040947;28;20528;-68
2022/01/05 00:54:06;;;;;;;1999.90;999.90;;;;;;;9.44;95.68;164916.47;5046568;28;20068;-68
2022/01/05 00:56:33;;;;;;;1999.90;999.90;;;;;;;9.41;95.76;164908.22;5049762;28;20180;-68
2022/01/05 00:58:59;;;;;;;1999.90;999.90;;;;;;;9.50;95.30;164932.97;5049481;28;20053;-68
2022/01/05 01:01:26;;;;;;;1999.90;999.90;;;;;;;9.40;95.45;164905.44;5047681;28;20114;-68
2022/01/05 01:03:53;;;;;;;1999.90;999.90;;;;;;;9.54;94.92;164942.59;5048203;28;20481;-68
2022/01/05 01:06:20;;;;;;;1999.90;999.90;;;;;;;9.58;94.61;164953.59;5045395;28;20411;-68
2022/01/05 01:08:47;;;;;;;1999.90;999.90;;;;;;;9.40;95.05;164905.44;5045608;28;20079;-68
2022/01/05 01:11:14;;;;;;;1999.90;999.90;;;;;;;9.33;95.37;164886.19;5041312;28;20077;-68
2022/01/05 01:13:43;;;;;;;1999.90;999.90;;;;;;;9.31;95.31;164880.69;5049213;28;20075;-68
2022/01/05 01:16:09;;;;;;;1999.90;999.90;;;;;;;9.22;95.32;164857.28;5046376;28;20175;-68
2022/01/05 01:18:36;;;;;;;1999.90;999.90;;;;;;;9.32;95.03;164883.44;5039936;28;20099;-67
2022/01/05 01:21:03;;;;;;;1999.90;999.90;;;;;;;9.36;95.07;164894.44;5049377;28;20060;-67
2022/01/05 01:23:30;;;;;;;1999.90;999.90;;;;;;;9.37;95.06;164895.84;5043905;28;20378;-67
2022/01/05 01:25:57;;;;;;;1999.90;999.90;;;;;;;9.58;94.22;164952.25;5046032;28;20049;-67
2022/01/05 01:28:24;;;;;;;1999.90;999.90;;;;;;;9.54;94.09;164942.59;5048220;28;20744;-67
2022/01/05 01:30:51;;;;;;;1999.90;999.90;;;;;;;9.57;94.20;164949.47;5043446;28;20054;-67
2022/01/05 01:33:18;;;;;;;1999.90;999.90;;;;;;;9.52;94.04;164938.47;5022220;28;20068;-67
2022/01/05 01:35:45;;;;;;;1999.90;999.90;;;;;;;9.43;93.88;164913.69;5047748;28;20060;-67
2022/01/05 01:38:11;;;;;;;1999.90;999.90;;;;;;;9.36;94.45;164893.06;5046662;28;20111;-68
2022/01/05 01:40:38;;;;;;;1999.90;999.90;;;;;;;9.34;94.42;164888.94;5047435;28;20437;-68
2022/01/05 01:43:05;;;;;;;1999.90;999.90;;;;;;;9.26;94.92;164866.91;5047780;28;20126;-68
2022/01/05 01:45:33;;;;;;;1999.90;999.90;;;;;;;9.11;95.46;164828.41;5046515;28;20101;-67
2022/01/05 01:48:00;;;;;;;1999.90;999.90;;;;;;;9.03;95.80;164806.38;5047069;28;20051;-67
2022/01/05 01:50:27;;;;;;;1999.90;999.90;;;;;;;9.03;95.99;164806.38;5048270;28;20049;-67
2022/01/05 01:52:54;;;;;;;1999.90;999.90;;;;;;;9.11;95.50;164828.41;5047485;28;20095;-67
2022/01/05 01:55:21;;;;;;;1999.90;999.90;;;;;;;9.11;95.51;164828.41;5047280;28;20053;-67
2022/01/05 01:57:47;;;;;;;1999.90;999.90;;;;;;;9.26;95.09;164868.31;5048455;28;20376;-67
2022/01/05 02:00:14;;;;;;;1999.90;999.90;;;;;;;9.16;95.25;164842.16;5049768;28;20068;-67
2022/01/05 02:02:44;;;;;;;1999.90;999.90;;;;;;;9.14;95.37;164835.25;5050857;28;20107;-67
2022/01/05 02:05:11;;;;;;;1999.90;999.90;;;;;;;9.20;95.02;164850.41;5051207;28;20049;-67
2022/01/05 02:07:38;;;;;;;1999.90;999.90;;;;;;;9.07;95.53;164816.03;5050835;28;20460;-67
2022/01/05 02:10:07;;;;;;;1999.90;999.90;;;;;;;9.20;95.10;164850.41;5050599;28;20049;-67
2022/01/05 02:12:34;;;;;;;1999.90;999.90;;;;;;;9.22;95.17;164857.28;5051655;28;20387;-67
2022/01/05 02:15:01;;;;;;;1999.90;999.90;;;;;;;9.40;94.51;164904.09;5050691;28;20053;-67
2022/01/05 02:20:32;;;;;;;1999.90;999.90;;;;;;;9.31;94.72;164880.69;5027261;28;20095;-67
2022/01/05 02:22:59;;;;;;;1999.90;999.90;;;;;;;9.38;94.55;164899.97;5027860;28;20094;-67
2022/01/05 02:25:27;;;;;;;1999.90;999.90;;;;;;;9.32;94.52;164883.44;5037546;28;20087;-67
2022/01/05 02:27:56;;;;;;;1999.90;999.90;;;;;;;9.00;95.70;164798.13;5050213;28;20115;-67
2022/01/05 02:30:29;;;;;;;1999.90;999.90;;;;;;;8.88;96.68;164765.13;5051314;28;20115;-67
2022/01/05 02:32:57;;;;;;;1999.90;999.90;;;;;;;8.86;96.64;164759.56;5049074;28;20052;-67
2022/01/05 02:35:24;;;;;;;1999.90;999.90;;;;;;;8.88;96.72;164765.13;5050108;28;20099;-67
2022/01/05 02:37:53;;;;;;;1999.90;999.90;;;;;;;9.03;96.40;164805.00;5050657;28;20068;-67
2022/01/05 02:40:24;;;;;;;1999.90;999.90;;;;;;;8.59;97.12;164688.06;5049536;28;20143;-67
2022/01/05 02:42:57;;;;;;;1999.90;999.90;;;;;;;8.57;98.29;164682.56;5050047;28;20452;-67
2022/01/05 02:45:24;;;;;;;1999.90;999.90;;;;;;;8.46;98.22;164655.06;5043330;28;20088;-68
2022/01/05 02:47:51;;;;;;;1999.90;999.90;;;;;;;8.53;98.27;164671.56;5050005;28;20108;-67
2022/01/05 02:50:18;;;;;;;1999.90;999.90;;;;;;;8.90;96.97;164770.59;5049680;28;20142;-67
2022/01/05 02:52:45;;;;;;;1999.90;999.90;;;;;;;8.73;97.36;164725.22;5033145;28;20045;-67
2022/01/05 02:55:12;;;;;;;1999.90;999.90;;;;;;;8.53;97.88;164671.56;5049901;28;20102;-68
2022/01/05 02:57:39;;;;;;;1999.90;999.90;;;;;;;8.84;96.96;164755.47;5049226;28;20354;-67
2022/01/05 03:00:07;;;;;;;1999.90;999.90;;;;;;;8.34;99.25;164622.00;5050604;28;20405;-67
2022/01/05 03:02:34;;;;;;;1999.90;999.90;;;;;;;8.67;98.02;164708.72;5049746;28;20099;-67
2022/01/05 03:05:03;;;;;;;1999.90;999.90;;;;;;;8.50;97.80;164663.31;5049099;28;20106;-67
2022/01/05 03:07:30;;;;;;;1999.90;999.90;;;;;;;8.58;98.10;164685.34;5050174;28;20041;-67
2022/01/05 03:09:56;;;;;;;1999.90;999.90;;;;;;;8.98;96.78;164792.63;5049621;28;20140;-68
2022/01/05 03:12:23;;;;;;;1999.90;999.90;;;;;;;9.14;95.59;164836.66;5043980;28;20081;-68
2022/01/05 03:14:49;;;;;;;1999.90;999.90;;;;;;;9.20;95.60;164850.41;5048191;28;20370;-67
2022/01/05 03:17:16;;;;;;;1999.90;999.90;;;;;;;9.23;95.11;164860.06;5050296;28;20073;-67
2022/01/05 03:19:42;;;;;;;1999.90;999.90;;;;;;;9.20;95.34;164850.41;5048988;28;20076;-67
2022/01/05 03:22:09;;;;;;;1999.90;999.90;;;;;;;9.25;95.21;164864.19;5051234;28;20120;-67
2022/01/05 03:24:35;;;;;;;1999.90;999.90;;;;;;;9.28;94.82;164873.78;5050210;28;20044;-68
2022/01/05 03:27:02;;;;;;;1999.90;999.90;;;;;;;9.23;95.05;164858.66;5048606;28;20105;-67
2022/01/05 03:29:29;;;;;;;1999.90;999.90;;;;;;;9.14;94.96;164836.66;5049537;28;20049;-67
2022/01/05 03:31:55;;;;;;;1999.90;999.90;;;;;;;9.21;94.94;164854.53;5050335;28;20151;-67
2022/01/05 03:34:22;;;;;;;1999.90;999.90;;;;;;;9.24;94.87;164861.41;5049582;28;20079;-67
2022/01/05 03:36:49;;;;;;;1999.90;999.90;;;;;;;9.30;94.55;164877.91;5051794;28;20114;-67
2022/01/05 03:39:15;;;;;;;1999.90;999.90;;;;;;;9.39;94.29;164902.69;5051735;28;20082;-67
2022/01/05 03:41:42;;;;;;;1999.90;999.90;;;;;;;9.41;94.14;164908.22;5049285;28;20053;-67
2022/01/05 03:44:10;;;;;;;1999.90;999.90;;;;;;;9.42;94.18;164909.56;5038594;28;20045;-67
2022/01/05 03:46:37;;;;;;;1999.90;999.90;;;;;;;9.47;94.01;164924.72;5050175;28;20053;-67
2022/01/05 03:49:04;;;;;;;1999.90;999.90;;;;;;;9.45;93.76;164919.25;5048303;28;20394;-67
2022/01/05 03:51:30;;;;;;;1999.90;999.90;;;;;;;9.28;94.28;164872.44;5050030;28;20080;-67
2022/01/05 03:53:57;;;;;;;1999.90;999.90;;;;;;;9.17;94.53;164843.56;5051816;28;20384;-67
2022/01/05 03:56:24;;;;;;;1999.90;999.90;;;;;;;9.24;94.58;164862.78;5050631;28;20049;-67
2022/01/05 03:58:51;;;;;;;1999.90;999.90;;;;;;;9.24;94.48;164861.41;5049745;28;20395;-67
2022/01/05 04:01:17;;;;;;;1999.90;999.90;;;;;;;9.42;93.87;164910.94;5052593;28;20391;-67
2022/01/05 04:03:44;;;;;;;1999.90;999.90;;;;;;;9.37;93.81;164897.19;5048647;28;20143;-67
2022/01/05 04:06:10;;;;;;;1999.90;999.90;;;;;;;9.38;94.22;164899.97;5048827;28;20323;-67
2022/01/05 04:08:37;;;;;;;1999.90;999.90;;;;;;;9.34;93.72;164888.94;5051069;28;20069;-67
2022/01/05 04:11:04;;;;;;;1999.90;999.90;;;;;;;9.40;93.96;164904.09;5046812;28;20072;-67
2022/01/05 04:13:30;;;;;;;1999.90;999.90;;;;;;;9.28;93.98;164872.44;5048706;28;20053;-67
2022/01/05 04:15:57;;;;;;;1999.90;999.90;;;;;;;9.31;93.80;164880.69;5048997;28;20389;-68
2022/01/05 04:18:23;;;;;;;1999.90;999.90;;;;;;;9.36;93.62;164894.44;5047692;28;20080;-67
2022/01/05 04:20:50;;;;;;;1999.90;999.90;;;;;;;9.33;93.85;164887.59;5047602;28;20058;-67
2022/01/05 04:23:16;;;;;;;1999.90;999.90;;;;;;;9.36;93.69;164894.44;5050020;28;20130;-67
2022/01/05 04:25:43;;;;;;;1999.90;999.90;;;;;;;9.33;93.81;164886.19;5047164;28;20049;-67
2022/01/05 04:28:09;;;;;;;1999.90;999.90;;;;;;;9.30;93.50;164879.31;5048233;28;20053;-68
2022/01/05 04:30:36;;;;;;;1999.90;999.90;;;;;;;9.39;93.32;164902.69;5048933;28;20512;-68
2022/01/05 04:33:02;;;;;;;1999.90;999.90;;;;;;;9.07;94.55;164817.38;5047637;28;20138;-67
2022/01/05 04:35:49;;;;;;;1999.90;999.90;;;;;;;9.19;93.87;164847.69;5047439;28;20128;-67
2022/01/05 04:38:15;;;;;;;1999.90;999.90;;;;;;;9.13;93.86;164833.88;5048308;28;20098;-68
2022/01/05 04:40:43;;;;;;;1999.90;999.90;;;;;;;9.37;93.75;164897.19;5048663;28;20126;-68
2022/01/05 04:43:10;;;;;;;1999.90;999.90;;;;;;;9.43;93.43;164912.34;5046962;28;20041;-68
2022/01/05 04:45:36;;;;;;;1999.90;999.90;;;;;;;9.48;93.29;164927.50;5046942;28;20103;-68
2022/01/05 04:48:04;;;;;;;1999.90;999.90;;;;;;;9.49;93.28;164928.84;5050311;28;20045;-68
2022/01/05 04:50:30;;;;;;;1999.90;999.90;;;;;;;9.52;93.21;164937.09;5049083;28;20091;-68
2022/01/05 04:52:57;;;;;;;1999.90;999.90;;;;;;;9.38;92.87;164899.97;5047874;28;20048;-68
2022/01/05 04:55:23;;;;;;;1999.90;999.90;;;;;;;9.45;93.24;164917.81;5030614;28;20084;-68
2022/01/05 04:57:50;;;;;;;1999.90;999.90;;;;;;;9.39;93.46;164901.31;5046825;28;20134;-68
2022/01/05 05:00:16;;;;;;;1999.90;999.90;;;;;;;9.47;93.42;164924.72;5048867;28;20053;-68
2022/01/05 05:02:43;;;;;;;1999.90;999.90;;;;;;;9.45;93.48;164919.25;5047853;28;20072;-68
2022/01/05 05:05:10;;;;;;;1999.90;999.90;;;;;;;9.31;93.95;164882.03;5047368;28;20508;-68
2022/01/05 05:07:36;;;;;;;1999.90;999.90;;;;;;;9.27;93.66;164869.66;5048283;28;20045;-68
2022/01/05 05:10:04;;;;;;;1999.90;999.90;;;;;;;9.33;94.03;164887.59;5048128;28;20048;-68
2022/01/05 05:12:31;;;;;;;1999.90;999.90;;;;;;;9.44;93.66;164916.47;5046737;28;20084;-68
2022/01/05 05:14:57;;;;;;;1999.90;999.90;;;;;;;9.54;93.33;164941.22;5048033;28;20280;-68
2022/01/05 05:17:24;;;;;;;1999.90;999.90;;;;;;;9.57;93.02;164949.47;5047090;28;20095;-68
2022/01/05 05:19:51;;;;;;;1999.90;999.90;;;;;;;9.47;93.91;164924.72;5047225;28;20483;-68
2022/01/05 05:22:17;;;;;;;1999.90;999.90;;;;;;;9.50;93.63;164931.63;5045643;28;20115;-68
2022/01/05 05:24:44;;;;;;;1999.90;999.90;;;;;;;9.47;93.93;164924.72;5043812;28;20076;-68
2022/01/05 05:27:10;;;;;;;1999.90;999.90;;;;;;;9.46;93.90;164921.94;5048213;28;20414;-68
2022/01/05 05:29:37;;;;;;;1999.90;999.90;;;;;;;9.28;94.45;164872.44;5052547;28;20053;-68
2022/01/05 05:32:05;;;;;;;1999.90;999.90;;;;;;;9.11;95.00;164828.41;5049563;28;20457;-68
2022/01/05 05:34:31;;;;;;;1999.90;999.90;;;;;;;9.07;95.53;164816.03;5049963;28;20064;-68
2022/01/05 05:36:59;;;;;;;1999.90;999.90;;;;;;;8.82;96.27;164751.34;5049769;28;20342;-68
2022/01/05 05:39:25;;;;;;;1999.90;999.90;;;;;;;8.91;96.54;164774.72;5053589;28;20077;-68
2022/01/05 05:41:52;;;;;;;1999.90;999.90;;;;;;;8.95;96.41;164785.75;5049740;28;20192;-68
2022/01/05 05:44:18;;;;;;;1999.90;999.90;;;;;;;9.06;95.85;164814.63;5049527;28;20110;-68
2022/01/05 05:46:45;;;;;;;1999.90;999.90;;;;;;;8.87;96.34;164762.34;5050133;28;20384;-68
2022/01/05 05:49:12;;;;;;;1999.90;999.90;;;;;;;8.62;97.01;164697.72;5049053;28;20111;-68
2022/01/05 05:51:38;;;;;;;1999.90;999.90;;;;;;;8.89;96.63;164769.25;5052169;28;20076;-68
2022/01/05 05:54:05;;;;;;;1999.90;999.90;;;;;;;8.93;96.47;164778.84;5050384;28;20049;-68
2022/01/05 05:56:31;;;;;;;1999.90;999.90;;;;;;;8.60;97.53;164690.81;5051349;28;20068;-68
2022/01/05 05:58:58;;;;;;;1999.90;999.90;;;;;;;8.61;98.00;164693.59;5056768;28;20041;-68
2022/01/05 06:01:24;;;;;;;1999.90;999.90;;;;;;;8.38;98.93;164633.03;5042932;28;20049;-68
2022/01/05 06:03:51;;;;;;;1999.90;999.90;;;;;;;8.43;99.19;164646.75;5047634;28;20048;-68
2022/01/05 06:06:18;;;;;;;1999.90;999.90;;;;;;;8.65;98.16;164704.59;5044248;28;20103;-68
2022/01/05 06:08:44;;;;;;;1999.90;999.90;;;;;;;8.81;97.61;164747.22;5050578;28;20049;-68
2022/01/05 06:11:11;;;;;;;1999.90;999.90;;;;;;;8.93;96.92;164778.84;5050011;28;20092;-68
2022/01/05 06:13:38;;;;;;;1999.90;999.90;;;;;;;9.04;96.54;164809.13;5051785;28;20149;-68
2022/01/05 06:16:04;;;;;;;1999.90;999.90;;;;;;;9.05;96.47;164811.91;5051141;28;20072;-68
2022/01/05 06:18:31;;;;;;;1999.90;999.90;;;;;;;9.06;96.28;164814.63;5034615;28;20085;-68
2022/01/05 06:20:57;;;;;;;1999.90;999.90;;;;;;;9.01;96.71;164799.47;5048928;28;20068;-68
2022/01/05 06:23:24;;;;;;;1999.90;999.90;;;;;;;8.95;96.70;164784.38;5050472;28;20049;-68
2022/01/05 06:25:50;;;;;;;1999.90;999.90;;;;;;;8.98;96.83;164794.00;5049997;28;20499;-68
2022/01/05 06:28:17;;;;;;;1999.90;999.90;;;;;;;8.86;97.39;164761.00;5066755;28;20051;-68
2022/01/05 06:30:44;;;;;;;1999.90;999.90;;;;;;;8.50;98.62;164663.31;5051114;28;20045;-66
2022/01/05 06:33:10;;;;;;;1999.90;999.90;;;;;;;8.68;98.38;164712.84;5050469;28;20225;-66
2022/01/05 06:35:37;;;;;;;1999.90;999.90;;;;;;;8.75;98.12;164732.13;5052112;28;20053;-67
2022/01/05 06:38:04;;;;;;;1999.90;999.90;;;;;;;8.66;98.66;164707.31;5051300;28;20063;-67
2022/01/05 06:40:30;;;;;;;1999.90;999.90;;;;;;;8.62;98.72;164696.34;5048718;28;20296;-66
2022/01/05 06:42:59;;;;;;;1999.90;999.90;;;;;;;8.65;98.79;164704.59;5044499;28;20118;-67
2022/01/05 06:45:25;;;;;;;1999.90;999.90;;;;;;;8.60;99.00;164692.22;5050165;28;20057;-67
2022/01/05 06:47:52;;;;;;;1999.90;999.90;;;;;;;8.59;99.42;164689.47;5047610;28;20327;-67
2022/01/05 06:50:19;;;;;;;1999.90;999.90;;;;;;;8.54;100.00;164675.69;5046421;28;20083;-67
2022/01/05 06:52:46;;;;;;;1999.90;999.90;;;;;;;8.68;99.52;164712.84;5046779;28;20103;-66
2022/01/05 06:55:12;;;;;;;1999.90;999.90;;;;;;;8.70;99.71;164716.97;5049122;28;20084;-67
2022/01/05 06:57:41;;;;;;;1999.90;999.90;;;;;;;8.38;100.00;164633.03;5052031;28;20049;-68
2022/01/05 07:00:12;;;;;;;1999.90;999.90;;;;;;;8.30;100.00;164611.00;5049620;28;20049;-67
2022/01/05 07:02:39;;;;;;;1999.90;999.90;;;;;;;8.43;100.00;164646.75;5049563;28;20045;-67
2022/01/05 07:05:07;;;;;;;1999.90;999.90;;;;;;;8.43;100.00;164646.75;5049814;28;20430;-68
2022/01/05 07:07:34;;;;;;;1999.90;999.90;;;;;;;8.56;100.00;164679.81;5050611;28;20045;-68
2022/01/05 07:10:01;;;;;;;1999.90;999.90;;;;;;;8.48;100.00;164657.81;5048867;28;20516;-68
2022/01/05 07:12:28;;;;;;;1999.90;999.90;;;;;;;8.21;100.00;164586.25;5049287;28;20045;-68
2022/01/05 07:14:54;;;;;;;1999.90;999.90;;;;;;;8.42;100.00;164642.63;5050433;28;20190;-68
2022/01/05 07:17:21;;;;;;;1999.90;999.90;;;;;;;8.03;100.00;164539.50;5048950;28;20087;-68
2022/01/05 07:19:47;;;;;;;1999.90;999.90;;;;;;;8.05;100.00;164545.03;5049694;28;20080;-68
2022/01/05 07:22:14;;;;;;;1999.90;999.90;;;;;;;8.01;100.00;164532.59;5050060;28;20248;-68
2022/01/05 07:24:40;;;;;;;1999.90;999.90;;;;;;;7.78;100.00;164470.78;5047902;28;20048;-68
2022/01/05 07:27:07;;;;;;;1999.90;999.90;;;;;;;8.03;100.00;164539.50;5049460;28;20053;-68
2022/01/05 07:29:34;;;;;;;1999.90;999.90;;;;;;;7.54;100.00;164408.91;5050424;28;20044;-68
2022/01/05 07:32:01;;;;;;;1999.90;999.90;;;;;;;7.54;100.00;164407.53;5048641;28;20460;-68
2022/01/05 07:34:27;;;;;;;1999.90;999.90;;;;;;;7.61;100.00;164426.78;5049313;28;20072;-68
2022/01/05 07:36:54;;;;;;;1999.90;999.90;;;;;;;7.78;100.00;164470.78;5045349;28;20184;-68
2022/01/05 07:39:20;;;;;;;1999.90;999.90;;;;;;;7.63;100.00;164432.28;5042400;28;20158;-68
2022/01/05 07:41:47;;;;;;;1999.90;999.90;;;;;;;7.65;100.00;164436.38;5049547;28;20102;-67
2022/01/05 07:44:14;;;;;;;1999.90;999.90;;;;;;;7.47;100.00;164388.28;5050411;28;20393;-67
2022/01/05 07:46:40;;;;;;;1999.90;999.90;;;;;;;7.63;100.00;164432.28;5048183;28;20547;-67
2022/01/05 07:49:07;;;;;;;1999.90;999.90;;;;;;;7.28;100.00;164337.44;5048440;28;20598;-67
2022/01/05 07:51:34;;;;;;;1999.90;999.90;;;;;;;7.30;100.00;164344.31;5048954;28;20052;-67
2022/01/05 07:54:01;;;;;;;1999.90;999.90;;;;;;;7.51;100.00;164400.66;5048329;28;20474;-67
2022/01/05 07:56:28;;;;;;;1999.90;999.90;;;;;;;7.28;100.00;164338.84;5047328;28;20048;-67
2022/01/05 07:58:55;;;;;;;1999.90;999.90;;;;;;;7.19;100.00;164314.06;5050009;28;20091;-67
2022/01/05 08:01:22;;;;;;;1999.90;999.90;;;;;;;6.69;100.00;164182.19;5047429;28;20053;-67
2022/01/05 08:03:49;;;;;;;1999.90;999.90;;;;;;;7.02;100.00;164268.75;5044861;28;20072;-68
2022/01/05 08:06:20;;;;;;;1999.90;999.90;;;;;;;7.23;100.00;164326.47;5048974;28;20114;-68
2022/01/05 08:08:48;;;;;;;1999.90;999.90;;;;;;;7.15;100.00;164303.13;5048392;28;20044;-68
2022/01/05 08:11:15;;;;;;;1999.90;999.90;;;;;;;7.02;100.00;164270.09;5047655;28;20048;-68
2022/01/05 08:13:42;;;;;;;1999.90;999.90;;;;;;;6.95;100.00;164250.91;5048654;28;20349;-68
2022/01/05 08:16:08;;;;;;;1999.90;999.90;;;;;;;7.26;100.00;164333.31;5048891;28;20098;-68
2022/01/05 08:18:35;;;;;;;1999.90;999.90;;;;;;;7.48;100.00;164392.41;5047822;28;20373;-68
2022/01/05 08:21:02;;;;;;;1999.90;999.90;;;;;;;7.43;100.00;164377.28;5048610;28;20056;-68
2022/01/05 08:23:29;;;;;;;1999.90;999.90;;;;;;;7.71;100.00;164454.28;5047940;28;20053;-68
2022/01/05 08:25:56;;;;;;;1999.90;999.90;;;;;;;7.72;100.00;164455.66;5046132;28;20061;-68
2022/01/05 08:28:22;;;;;;;1999.90;999.90;;;;;;;7.94;100.00;164514.75;5046876;28;20072;-68
2022/01/05 08:30:49;;;;;;;1999.90;999.90;;;;;;;8.14;100.00;164568.38;5038050;28;20073;-68
2022/01/05 08:33:17;;;;;;;1999.90;999.90;;;;;;;8.18;100.00;164578.03;5047860;28;20350;-68
2022/01/05 08:35:45;;;;;;;1999.90;999.90;;;;;;;8.37;100.00;164628.91;5046767;28;20275;-68
2022/01/05 08:38:13;;;;;;;1999.90;999.90;;;;;;;8.40;100.00;164638.50;5048596;28;20053;-68
2022/01/05 08:40:40;;;;;;;1999.90;999.90;;;;;;;8.32;100.00;164616.53;5049832;28;20118;-68
2022/01/05 08:43:08;;;;;;;1999.90;999.90;;;;;;;8.24;100.00;164594.50;5048628;28;20422;-68
2022/01/05 08:45:35;;;;;;;1999.90;999.90;;;;;;;8.15;100.00;164569.78;5049568;28;20076;-68
2022/01/05 08:48:02;;;;;;;1999.90;999.90;;;;;;;7.74;100.00;164461.13;5047302;28;20086;-68
2022/01/05 08:50:32;;;;;;;1999.90;999.90;;;;;;;7.95;100.00;164517.53;5048578;28;20401;-68
2022/01/05 08:52:58;;;;;;;1999.90;999.90;;;;;;;7.88;100.00;164498.28;5048789;28;20053;-68
2022/01/05 08:55:29;;;;;;;1999.90;999.90;;;;;;;7.90;100.00;164503.75;5048208;28;20075;-68
2022/01/05 08:57:57;;;;;;;1999.90;999.90;;;;;;;7.56;100.00;164413.03;5049663;28;20090;-68
2022/01/05 09:00:25;;;;;;;1999.90;999.90;;;;;;;7.95;100.00;164517.53;5055584;28;20109;-68
2022/01/05 09:02:51;;;;;;;1999.90;999.90;;;;;;;7.60;100.00;164424.03;5061395;28;20056;-68
2022/01/05 09:05:22;;;;;;;1999.90;999.90;;;;;;;7.82;100.00;164481.78;5068851;28;20056;-68
2022/01/05 09:07:49;;;;;;;1999.90;999.90;;;;;;;7.82;100.00;164483.13;5067781;28;20048;-68
2022/01/05 09:10:16;;;;;;;1999.90;999.90;;;;;;;7.80;100.00;164477.66;5056379;28;20461;-68
2022/01/05 09:12:43;;;;;;;1999.90;999.90;;;;;;;7.64;100.00;164435.03;5047435;28;20099;-68
2022/01/05 09:15:10;;;;;;;1999.90;999.90;;;;;;;7.26;100.00;164331.97;5047651;28;20279;-68
2022/01/05 09:17:37;;;;;;;1999.90;999.90;;;;;;;7.33;100.00;164351.19;5047571;28;20110;-68
2022/01/05 09:20:05;;;;;;;1999.90;999.90;;;;;;;6.87;100.00;164230.25;5047799;28;20102;-68
2022/01/05 09:22:33;;;;;;;1999.90;999.90;;;;;;;6.75;100.00;164195.94;5047379;28;20057;-68
2022/01/05 09:25:00;;;;;;;1999.90;999.90;;;;;;;7.20;100.00;164316.84;5048367;28;20052;-68
2022/01/05 09:27:26;;;;;;;1999.90;999.90;;;;;;;7.04;100.00;164274.22;5046604;28;20072;-68
2022/01/05 09:29:53;;;;;;;1999.90;999.90;;;;;;;7.15;100.00;164304.47;5047689;28;20076;-68
2022/01/05 09:32:19;;;;;;;1999.90;999.90;;;;;;;6.69;100.00;164182.19;5048330;28;20059;-68
2022/01/05 09:34:46;;;;;;;1999.90;999.90;;;;;;;6.33;100.00;164084.69;5047210;28;20323;-68
2022/01/05 09:37:26;;;;;;;1999.90;999.90;;;;;;;6.85;100.00;164224.78;5043538;28;20053;-68
2022/01/05 09:42:41;;;;;;;1999.90;999.90;;;;;;;7.17;100.00;164308.59;5048714;28;20157;-68
2022/01/05 09:45:20;;;;;;;1999.90;999.90;;;;;;;6.93;100.00;164245.38;5046989;28;20090;-68
2022/01/05 09:48:17;;;;;;;1999.90;999.90;;;;;;;7.31;100.00;164345.69;5047328;28;20426;-68
2022/01/05 09:50:58;;;;;;;1999.90;999.90;;;;;;;7.27;100.00;164336.06;5026088;28;20049;-68
2022/01/05 09:53:25;;;;;;;1999.90;999.90;;;;;;;7.29;100.00;164340.19;5048287;28;20048;-68
2022/01/05 09:56:09;;;;;;;1999.90;999.90;;;;;;;6.87;100.00;164228.91;5046775;28;20125;-68
2022/01/05 09:58:37;;;;;;;1999.90;999.90;;;;;;;6.51;100.00;164132.75;5048516;28;20824;-68
2022/01/05 10:01:05;;;;;;;1999.90;999.90;;;;;;;6.39;100.00;164099.81;5048343;28;20061;-68
2022/01/05 10:03:31;;;;;;;1999.90;999.90;;;;;;;6.35;100.00;164091.53;5045551;28;20080;-68
2022/01/05 10:06:00;;;;;;;1999.90;999.90;;;;;;;6.41;100.00;164106.63;5049976;28;20118;-68
2022/01/05 10:08:27;;;;;;;1999.90;999.90;;;;;;;6.50;100.00;164130.00;5047988;28;20405;-68
2022/01/05 10:10:54;;;;;;;1999.90;999.90;;;;;;;6.54;100.00;164139.63;5046186;28;20045;-68
2022/01/05 10:13:21;;;;;;;1999.90;999.90;;;;;;;6.95;100.00;164250.91;5046944;28;20091;-68
2022/01/05 10:15:47;;;;;;;1999.90;999.90;;;;;;;6.89;100.00;164234.38;5046856;28;20056;-68
2022/01/05 10:18:17;;;;;;;1999.90;999.90;;;;;;;6.56;100.00;164146.47;5046764;28;20221;-68
2022/01/05 10:21:02;;;;;;;1999.90;999.90;;;;;;;6.75;100.00;164195.94;5049458;28;20052;-67
2022/01/05 10:23:36;;;;;;;1999.90;999.90;;;;;;;6.77;100.00;164202.78;5046961;28;20084;-68
2022/01/05 10:26:33;;;;;;;1999.90;999.90;;;;;;;6.66;100.00;164173.94;5050177;28;20053;-68
2022/01/05 10:29:03;;;;;;;1999.90;999.90;;;;;;;6.66;100.00;164172.59;5046057;28;20098;-68
2022/01/05 10:31:33;;;;;;;1999.90;999.90;;;;;;;6.90;100.00;164235.78;5050210;28;20102;-68
2022/01/05 10:34:16;;;;;;;1999.90;999.90;;;;;;;7.23;100.00;164325.06;5051052;28;20466;-68
2022/01/05 10:36:45;;;;;;;1999.90;999.90;;;;;;;7.00;100.00;164264.63;5049785;28;20052;-68
2022/01/05 10:39:13;;;;;;;1999.90;999.90;;;;;;;7.12;100.00;164296.22;5049938;28;20098;-68
2022/01/05 10:41:43;;;;;;;1999.90;999.90;;;;;;;7.20;100.00;164316.84;5051179;28;20399;-68
2022/01/05 10:44:15;;;;;;;1999.90;999.90;;;;;;;7.26;100.00;164331.97;5050073;28;20358;-68
2022/01/05 10:46:46;;;;;;;1999.90;999.90;;;;;;;7.76;100.00;164468.00;5049414;28;20102;-68
2022/01/05 10:49:27;;;;;;;;;;;;;;;7.73;100.00;164458.41;5050806;28;20139;-67
2022/01/05 10:51:55;;;;;;;1999.90;999.90;;;;;;;7.93;100.00;164512.00;5050838;28;19920;-67
2022/01/05 10:54:28;;;;;;;1999.90;999.90;;;;;;;8.00;100.00;164529.91;5048446;28;20056;-68
2022/01/05 10:57:05;;;;;;;1999.90;999.90;;;;;;;7.99;100.00;164527.13;5049516;28;20333;-68
2022/01/05 10:59:38;;;;;;;1999.90;999.90;;;;;;;7.52;100.00;164402.06;5052696;28;20350;-68